Sunday, November 19, 2017, 5:39 AM EST
Back to Local

KGON, Groton/new London Airport

Location: Groton, CT, United States Lat: 41.333
Local Time: 5:39 AM EST (10:39 GMT) Lon: -72.05
Time Zone: US/Eastern Elev: 9 ft

Show me the last for .
Show Decoded

2017-11-19 04:56 METAR KGON 190956Z AUTO 22019G32KT 7SM -RA BKN013 OVC018 15/13 A2928 RMK AO2 PK
                 WND 22032/0949 SLP916 T01500133 PNO $ =
2017-11-19 04:38 METAR KGON 190938Z AUTO 21017G23KT 4SM -RA BR BKN013 OVC019 15/13 A2930 RMK AO2
                 PK WND 23029/0910 T01500133 PNO $ =
2017-11-19 03:56 METAR KGON 190856Z AUTO 22018G23KT 7SM -RA OVC019 16/13 A2932 RMK AO2 PK WND
                 22027/0829 RAB39 SLP929 P0001 60001 T01560133 56034 $ =
2017-11-19 02:56 METAR KGON 190756Z AUTO 21017G23KT 8SM OVC022 16/13 A2935 RMK AO2 SLP939
                 T01560128 $ =
2017-11-19 01:56 METAR KGON 190656Z AUTO 21017KT 8SM OVC023 16/13 A2939 RMK AO2 PK WND 20027/0613
                 SLP951 T01560128 $ =
2017-11-19 00:56 METAR KGON 190556Z AUTO 20019KT 9SM BKN027 OVC080 15/12 A2942 RMK AO2 RAE10
                 SLP963 P0001 60013 T01500122 10150 20122 56048 $ =
2017-11-18 23:56 METAR KGON 190456Z AUTO 19018KT 9SM -RA FEW027 FEW080 OVC100 14/12 A2946 RMK AO2
                 RAB15E37B55 SLP976 P0003 T01390122 401391050 $ =
2017-11-18 23:04 METAR KGON 190404Z AUTO 19009KT 10SM SCT024 BKN080 OVC100 12/11 A2951 RMK AO2
                 P0001 T01220111 $ =
2017-11-18 22:56 METAR KGON 190356Z AUTO 19011KT 10SM FEW019 BKN026 OVC090 12/11 A2952 RMK AO2
                 RAE56 SLP995 P0004 T01220106 $ =
2017-11-18 21:56 METAR KGON 190256Z 23012KT 4SM RA BR FEW030 BKN045 OVC055 12/10 A2956 RMK AO2
                 SLP010 P0001 60005 T01220100 56026 $ =
2017-11-18 20:56 METAR KGON 190156Z 23017G23KT 10SM -RA FEW026 BKN037 OVC050 13/10 A2958 RMK AO2
                 PK WND 22032/0140 SLP017 P0003 T01330100 $ =
2017-11-18 19:56 METAR KGON 190056Z 19011KT 9SM -RA SCT080 OVC090 13/10 A2960 RMK AO2 SLP021
                 P0001 T01280100 =
2017-11-18 18:56 METAR KGON 182356Z 21013KT 10SM -RA BKN100 OVC110 13/09 A2964 RMK AO2 RAB10
                 SLP036 P0000 60000 T01280089 10133 20100 57018 =
2017-11-18 17:56 METAR KGON 182256Z 20015KT 10SM SCT075 OVC095 13/08 A2966 RMK AO2 RAB2157E28
                 SLP042 P0000 T01280083 =
2017-11-18 16:56 METAR KGON 182156Z 20020KT 10SM BKN100 OVC110 13/08 A2968 RMK AO2 RAB44E55
                 SLP049 P0000 T01280078 =
2017-11-18 15:56 METAR KGON 182056Z 20018KT 10SM FEW030 OVC095 13/07 A2969 RMK AO2 SLP055
                 T01280072 56039 =
2017-11-18 14:56 METAR KGON 181956Z 20016KT 10SM BKN120 12/06 A2973 RMK AO2 PRESFR SLP066
                 T01220056 =
2017-11-18 13:56 METAR KGON 181856Z 21016KT 10SM FEW030 12/06 A2977 RMK AO2 SLP081 T01170056 =
2017-11-18 12:56 METAR KGON 181756Z 20010KT 10SM CLR 10/03 A2981 RMK AO2 SLP094 T01000028 10106
                 21039 58041 =
2017-11-18 11:56 METAR KGON 181656Z 21011KT 10SM CLR 10/02 A2984 RMK AO2 SLP105 T01000022 =
2017-11-18 10:56 METAR KGON 181556Z 22010KT 10SM CLR 09/02 A2990 RMK AO2 SLP125 T00890017 =
2017-11-18 09:56 METAR KGON 181456Z 00000KT 10SM CLR 04/M03 A2993 RMK AO2 SLP135 T00441028 58021
                 =
2017-11-18 08:56 METAR KGON 181356Z 00000KT 10SM CLR 02/M04 A2996 RMK AO2 SLP145 T00221044 =
2017-11-18 07:56 METAR KGON 181256Z 03003KT 10SM CLR M01/M04 A2998 RMK AO2 SLP152 T10111044 =
2017-11-18 06:56 METAR KGON 181156Z 06004KT 10SM CLR M04/M07 A2999 RMK AO2 SLP156 T10391072 10006
                 21050 55005 =
2017-11-18 05:56 METAR KGON 181056Z AUTO 03004KT 10SM CLR M03/M06 A2999 RMK AO2 SLP154 T10331061
                 =

Support USWX by starting your Amazon purchase here.